createdAt,value
2018-10-09T00:01:51.534Z,13.30
2018-10-09T00:04:25.573Z,13.20
2018-10-09T00:06:59.665Z,13.20
2018-10-09T00:09:33.729Z,13.20
2018-10-09T00:12:07.817Z,13.00
2018-10-09T00:14:41.904Z,13.00
2018-10-09T00:17:16.003Z,12.90
2018-10-09T00:19:50.165Z,13.00
2018-10-09T00:22:24.255Z,13.00
2018-10-09T00:24:58.243Z,13.00
2018-10-09T00:27:32.301Z,12.90
2018-10-09T00:30:06.370Z,12.80
2018-10-09T00:32:41.224Z,12.70
2018-10-09T00:35:15.354Z,12.60
2018-10-09T00:37:49.380Z,12.80
2018-10-09T00:40:23.392Z,12.80
2018-10-09T00:42:57.482Z,12.80
2018-10-09T00:45:31.580Z,12.70
2018-10-09T00:48:05.667Z,12.80
2018-10-09T00:50:39.694Z,12.80
2018-10-09T00:53:13.713Z,12.70
2018-10-09T00:55:47.752Z,12.70
2018-10-09T00:58:21.836Z,12.80
2018-10-09T01:00:55.905Z,12.80
2018-10-09T01:03:29.954Z,12.80
2018-10-09T01:06:03.894Z,12.80
2018-10-09T01:08:37.785Z,12.70
2018-10-09T01:11:11.833Z,12.70
2018-10-09T01:13:45.907Z,12.60
2018-10-09T01:16:20.106Z,12.60
2018-10-09T01:18:54.871Z,12.70
2018-10-09T01:21:28.998Z,12.70
2018-10-09T01:24:03.090Z,12.70
2018-10-09T01:26:37.178Z,12.60
2018-10-09T01:29:12.116Z,12.70
2018-10-09T01:31:46.889Z,12.70
2018-10-09T01:34:20.973Z,12.70
2018-10-09T01:36:55.110Z,12.60
2018-10-09T01:39:29.206Z,12.50
2018-10-09T01:42:03.316Z,12.40
2018-10-09T01:44:39.515Z,12.50
2018-10-09T01:47:13.489Z,12.50
2018-10-09T01:49:47.595Z,12.50
2018-10-09T01:52:21.689Z,12.50
2018-10-09T01:54:56.091Z,12.00
2018-10-09T01:57:29.981Z,12.00
2018-10-09T02:00:05.039Z,12.20
2018-10-09T02:02:39.817Z,12.30
2018-10-09T02:05:14.085Z,12.30
2018-10-09T02:07:48.783Z,12.30
2018-10-09T02:10:23.046Z,12.30
2018-10-09T02:12:57.379Z,12.40
2018-10-09T02:15:32.161Z,12.40
2018-10-09T02:18:06.154Z,12.30
2018-10-09T02:20:40.113Z,12.30
2018-10-09T02:23:14.261Z,12.30
2018-10-09T02:25:48.813Z,12.20
2018-10-09T02:28:23.700Z,12.10
2018-10-09T02:30:57.892Z,12.20
2018-10-09T02:33:32.282Z,12.20
2018-10-09T02:36:06.390Z,12.20
2018-10-09T02:38:41.628Z,12.20
2018-10-09T02:41:15.884Z,12.20
2018-10-09T02:43:50.881Z,12.20
2018-10-09T02:46:25.203Z,12.20
2018-10-09T02:48:59.359Z,11.90
2018-10-09T02:51:33.774Z,12.00
2018-10-09T02:54:07.918Z,12.10
2018-10-09T02:56:41.949Z,12.00
2018-10-09T02:59:15.878Z,12.10
2018-10-09T03:01:49.897Z,12.10
2018-10-09T03:04:23.925Z,12.00
2018-10-09T03:06:58.000Z,12.00
2018-10-09T03:09:32.104Z,12.00
2018-10-09T03:12:06.122Z,11.80
2018-10-09T03:14:40.133Z,11.90
2018-10-09T03:17:14.254Z,11.90
2018-10-09T03:19:48.494Z,11.90
2018-10-09T03:22:22.504Z,11.90
2018-10-09T03:24:56.573Z,11.90
2018-10-09T03:27:31.227Z,11.90
2018-10-09T03:30:05.918Z,11.90
2018-10-09T03:32:39.997Z,11.90
2018-10-09T03:35:14.234Z,11.90
2018-10-09T03:37:49.066Z,11.80
2018-10-09T03:40:23.436Z,11.80
2018-10-09T03:42:57.542Z,11.80
2018-10-09T03:45:31.874Z,11.80
2018-10-09T03:48:06.907Z,11.60
2018-10-09T03:50:41.117Z,11.60
2018-10-09T03:53:15.256Z,11.70
2018-10-09T03:55:49.398Z,11.70
2018-10-09T03:58:24.109Z,11.60
2018-10-09T04:00:58.391Z,11.60
2018-10-09T04:03:32.576Z,11.70
2018-10-09T04:06:06.667Z,11.40
2018-10-09T04:08:40.783Z,11.40
2018-10-09T04:11:14.962Z,11.40
2018-10-09T04:13:48.915Z,11.30
2018-10-09T04:16:23.033Z,11.30
2018-10-09T04:18:57.134Z,11.20
2018-10-09T04:21:31.253Z,11.10
2018-10-09T04:24:05.943Z,11.10
2018-10-09T04:26:40.036Z,11.10
2018-10-09T04:29:14.943Z,11.10
2018-10-09T04:31:49.038Z,11.10
2018-10-09T04:34:23.818Z,11.20
2018-10-09T04:36:57.903Z,11.20
2018-10-09T04:39:32.612Z,11.20
2018-10-09T04:42:06.594Z,11.20
2018-10-09T04:44:40.701Z,11.10
2018-10-09T04:47:14.691Z,11.10
2018-10-09T04:49:48.928Z,11.10
2018-10-09T04:52:23.380Z,11.10
2018-10-09T04:54:57.551Z,11.10
2018-10-09T04:57:31.773Z,11.10
2018-10-09T05:00:06.020Z,11.10
2018-10-09T05:02:40.009Z,11.10
2018-10-09T05:05:14.069Z,11.10
2018-10-09T05:07:48.053Z,10.90
2018-10-09T05:10:22.154Z,11.00
2018-10-09T05:12:56.189Z,11.00
2018-10-09T05:15:30.180Z,11.00
2018-10-09T05:18:04.470Z,11.00
2018-10-09T05:20:39.178Z,11.00
2018-10-09T05:23:13.217Z,11.00
2018-10-09T05:25:47.278Z,10.80
2018-10-09T05:28:24.978Z,10.80
2018-10-09T05:30:59.424Z,10.70
2018-10-09T05:33:33.514Z,10.60
2018-10-09T05:36:07.429Z,10.70
2018-10-09T05:38:41.583Z,10.70
2018-10-09T05:41:15.696Z,10.60
2018-10-09T05:43:49.978Z,10.50
2018-10-09T05:46:23.972Z,10.70
2018-10-09T05:48:58.125Z,10.80
2018-10-09T05:51:32.250Z,10.90
2018-10-09T05:54:07.041Z,11.00
2018-10-09T05:56:41.118Z,11.00
2018-10-09T05:59:15.257Z,11.00
2018-10-09T06:01:49.345Z,11.10
2018-10-09T06:04:23.742Z,10.90
2018-10-09T06:06:57.738Z,10.70
2018-10-09T06:09:32.572Z,10.50
2018-10-09T06:12:06.597Z,10.40
2018-10-09T06:14:41.543Z,10.80
2018-10-09T06:17:15.606Z,10.80
2018-10-09T06:19:49.818Z,11.10
2018-10-09T06:22:24.009Z,11.20
2018-10-09T06:24:58.023Z,11.40
2018-10-09T06:27:32.118Z,11.60
2018-10-09T06:30:06.072Z,11.40
2018-10-09T06:32:40.117Z,11.70
2018-10-09T06:35:14.877Z,11.50
2018-10-09T06:37:49.024Z,11.50
2018-10-09T06:40:23.198Z,11.40
2018-10-09T06:42:57.123Z,11.20
2018-10-09T06:45:31.238Z,11.30
2018-10-09T06:48:05.330Z,11.40
2018-10-09T06:50:40.730Z,11.50
2018-10-09T06:53:14.883Z,11.50
2018-10-09T06:55:48.889Z,11.20
2018-10-09T06:58:22.875Z,11.40
2018-10-09T07:00:56.809Z,11.50
2018-10-09T07:03:30.821Z,11.70
2018-10-09T07:06:05.663Z,11.30
2018-10-09T07:08:39.868Z,11.20
2018-10-09T07:11:13.928Z,11.40
2018-10-09T07:13:48.043Z,11.70
2018-10-09T07:16:22.109Z,12.10
2018-10-09T07:18:56.117Z,12.10
2018-10-09T07:21:31.005Z,12.60
2018-10-09T07:24:05.083Z,12.60
2018-10-09T07:26:39.277Z,12.10
2018-10-09T07:29:13.293Z,12.10
2018-10-09T07:31:47.454Z,12.20
2018-10-09T07:34:21.547Z,12.30
2018-10-09T07:36:55.650Z,12.40
2018-10-09T07:39:29.780Z,12.50
2018-10-09T07:42:03.860Z,12.70
2018-10-09T07:44:37.868Z,12.70
2018-10-09T07:47:11.859Z,12.80
2018-10-09T07:49:45.945Z,12.80
2018-10-09T07:52:19.910Z,13.00
2018-10-09T07:54:54.026Z,12.90
2018-10-09T07:57:28.109Z,13.20
2018-10-09T08:00:02.274Z,13.60
2018-10-09T08:02:36.492Z,13.90
2018-10-09T08:05:10.652Z,14.00
2018-10-09T08:07:44.519Z,13.90
2018-10-09T08:10:19.360Z,14.10
2018-10-09T08:12:53.477Z,14.10
2018-10-09T08:15:28.279Z,14.20
2018-10-09T08:18:02.207Z,14.20
2018-10-09T08:20:37.024Z,14.30
2018-10-09T08:23:11.843Z,14.50
2018-10-09T08:25:45.871Z,14.50
2018-10-09T08:28:19.971Z,14.70
2018-10-09T08:30:54.004Z,14.90
2018-10-09T08:33:27.890Z,15.10
2018-10-09T08:36:01.991Z,15.20
2018-10-09T08:38:36.105Z,15.10
2018-10-09T08:41:10.222Z,15.40
2018-10-09T08:43:44.410Z,15.40
2018-10-09T08:46:18.685Z,15.50
2018-10-09T08:48:52.791Z,15.80
2018-10-09T08:51:26.746Z,15.90
2018-10-09T08:54:00.954Z,16.00
2018-10-09T08:56:35.182Z,15.90
2018-10-09T08:59:09.247Z,16.20
2018-10-09T09:01:43.972Z,16.60
2018-10-09T09:04:18.134Z,16.60
2018-10-09T09:06:52.319Z,16.60
2018-10-09T09:09:26.313Z,16.50
2018-10-09T09:12:01.038Z,16.70
2018-10-09T09:14:35.226Z,16.70
2018-10-09T09:17:09.150Z,16.80
2018-10-09T09:19:43.253Z,17.00
2018-10-09T09:22:17.384Z,17.20
2018-10-09T09:24:51.486Z,17.10
2018-10-09T09:27:25.645Z,17.10
2018-10-09T09:29:59.723Z,17.10
2018-10-09T09:32:34.550Z,17.30
2018-10-09T09:35:08.673Z,17.30
2018-10-09T09:37:42.802Z,17.30
2018-10-09T09:40:16.952Z,17.20
2018-10-09T09:42:51.590Z,17.30
2018-10-09T09:45:25.704Z,17.30
2018-10-09T09:47:59.657Z,17.40
2018-10-09T09:50:33.773Z,17.40
2018-10-09T09:53:07.733Z,17.60
2018-10-09T09:55:41.650Z,17.40
2018-10-09T09:58:15.827Z,17.20
2018-10-09T10:00:49.811Z,17.50
2018-10-09T10:03:24.591Z,17.60
2018-10-09T10:05:58.649Z,17.60
2018-10-09T10:08:32.885Z,17.70
2018-10-09T10:11:06.994Z,17.90
2018-10-09T10:13:41.102Z,17.90
2018-10-09T10:16:15.112Z,18.30
2018-10-09T10:18:49.087Z,18.40
2018-10-09T10:21:23.161Z,18.20
2018-10-09T10:23:57.257Z,18.20
2018-10-09T10:26:31.316Z,18.20
2018-10-09T10:29:05.414Z,18.30
2018-10-09T10:31:39.479Z,18.50
2018-10-09T10:34:13.645Z,18.80
2018-10-09T10:36:47.834Z,18.90
2018-10-09T10:39:21.936Z,18.90
2018-10-09T10:41:56.105Z,18.90
2018-10-09T10:44:30.890Z,19.00
2018-10-09T10:47:04.837Z,19.00
2018-10-09T10:49:39.009Z,18.90
2018-10-09T10:52:13.228Z,19.30
2018-10-09T10:54:47.451Z,19.40
2018-10-09T10:57:21.458Z,19.20
2018-10-09T10:59:55.422Z,19.30
2018-10-09T11:02:30.338Z,19.70
2018-10-09T11:05:04.533Z,19.70
2018-10-09T11:07:38.612Z,19.60
2018-10-09T11:10:12.723Z,19.70
2018-10-09T11:12:47.036Z,19.70
2018-10-09T11:15:21.326Z,19.80
2018-10-09T11:17:55.592Z,19.70
2018-10-09T11:20:29.652Z,19.90
2018-10-09T11:23:03.858Z,20.00
2018-10-09T11:25:37.771Z,19.90
2018-10-09T11:28:11.845Z,20.00
2018-10-09T11:30:45.854Z,20.30
2018-10-09T11:33:19.910Z,20.30
2018-10-09T11:35:53.958Z,20.20
2018-10-09T11:38:28.940Z,20.50
2018-10-09T11:41:02.917Z,20.40
2018-10-09T11:43:37.016Z,20.50
2018-10-09T11:46:11.034Z,20.50
2018-10-09T11:48:45.146Z,20.20
2018-10-09T11:51:19.227Z,20.20
2018-10-09T11:53:53.315Z,20.20
2018-10-09T11:56:27.380Z,20.40
2018-10-09T11:59:01.680Z,20.50
2018-10-09T12:01:35.740Z,20.60
2018-10-09T12:04:09.944Z,20.70
2018-10-09T12:06:43.946Z,20.80
2018-10-09T12:09:18.068Z,20.80
2018-10-09T12:11:52.166Z,20.80
2018-10-09T12:14:26.129Z,20.60
2018-10-09T12:17:00.198Z,20.50
2018-10-09T12:19:34.174Z,20.20
2018-10-09T12:22:09.040Z,20.10
2018-10-09T12:24:43.061Z,20.10
2018-10-09T12:27:17.067Z,20.10
2018-10-09T12:29:51.887Z,20.10
2018-10-09T12:32:25.969Z,20.10
2018-10-09T12:35:00.088Z,20.20
2018-10-09T12:37:34.177Z,20.20
2018-10-09T12:40:08.162Z,20.40
2018-10-09T12:42:43.035Z,20.80
2018-10-09T12:45:17.130Z,20.70
2018-10-09T12:47:51.187Z,20.80
2018-10-09T12:50:25.326Z,20.60
2018-10-09T12:52:59.531Z,20.50
2018-10-09T12:55:33.618Z,20.50
2018-10-09T12:58:07.626Z,20.50
2018-10-09T13:00:41.731Z,20.60
2018-10-09T13:03:15.877Z,20.50
2018-10-09T13:05:49.754Z,20.30
2018-10-09T13:08:23.793Z,20.00
2018-10-09T13:10:57.897Z,20.10
2018-10-09T13:13:32.008Z,20.20
2018-10-09T13:16:06.121Z,20.20
2018-10-09T13:18:40.255Z,20.20
2018-10-09T13:21:14.404Z,20.20
2018-10-09T13:23:48.468Z,20.30
2018-10-09T13:26:22.618Z,20.50
2018-10-09T13:28:56.595Z,20.50
2018-10-09T13:31:30.757Z,20.50
2018-10-09T13:34:05.642Z,20.70
2018-10-09T13:36:39.728Z,20.70
2018-10-09T13:39:13.853Z,20.60
2018-10-09T13:41:47.909Z,20.70
2018-10-09T13:44:21.837Z,20.70
2018-10-09T13:46:55.850Z,20.80
2018-10-09T13:49:30.002Z,20.80
2018-10-09T13:52:04.799Z,21.00
2018-10-09T13:54:38.777Z,20.90
2018-10-09T13:57:12.909Z,21.00
2018-10-09T13:59:46.971Z,21.00
2018-10-09T14:02:20.949Z,21.10
2018-10-09T14:04:55.698Z,21.30
2018-10-09T14:07:30.547Z,21.20
2018-10-09T14:10:04.710Z,21.20
2018-10-09T14:12:38.768Z,21.30
2018-10-09T14:15:12.913Z,21.30
2018-10-09T14:17:46.865Z,21.40
2018-10-09T14:20:21.716Z,21.50
2018-10-09T14:22:55.879Z,21.50
2018-10-09T14:25:29.888Z,21.50
2018-10-09T14:28:03.921Z,21.60
2018-10-09T14:30:37.965Z,21.80
2018-10-09T14:33:12.092Z,21.90
2018-10-09T14:35:46.826Z,22.00
2018-10-09T14:38:20.902Z,22.00
2018-10-09T14:40:55.795Z,21.80
2018-10-09T14:43:29.915Z,21.80
2018-10-09T14:46:04.074Z,21.70
2018-10-09T14:48:38.150Z,21.70
2018-10-09T14:51:12.230Z,21.90
2018-10-09T14:53:46.318Z,22.00
2018-10-09T14:56:20.244Z,21.90
2018-10-09T14:58:54.226Z,22.10
2018-10-09T15:01:28.317Z,22.10
2018-10-09T15:04:02.540Z,22.10
2018-10-09T15:06:36.650Z,21.90
2018-10-09T15:09:10.882Z,21.80
2018-10-09T15:11:44.919Z,21.80
2018-10-09T15:14:18.990Z,21.80
2018-10-09T15:16:53.162Z,21.90
2018-10-09T15:19:28.033Z,21.70
2018-10-09T15:22:02.112Z,21.70
2018-10-09T15:24:36.219Z,21.70
2018-10-09T15:27:10.299Z,21.80
2018-10-09T15:29:44.330Z,21.70
2018-10-09T15:32:18.454Z,21.60
2018-10-09T15:34:52.486Z,21.60
2018-10-09T15:37:27.293Z,21.50
2018-10-09T15:40:01.242Z,21.50
2018-10-09T15:42:35.321Z,21.40
2018-10-09T15:45:10.063Z,21.30
2018-10-09T15:47:44.847Z,21.40
2018-10-09T15:50:19.613Z,21.30
2018-10-09T15:52:53.715Z,21.30
2018-10-09T15:55:27.783Z,21.30
2018-10-09T15:58:02.123Z,21.30
2018-10-09T16:00:36.262Z,21.10
2018-10-09T16:03:10.145Z,21.20
2018-10-09T16:05:44.995Z,21.20
2018-10-09T16:08:19.058Z,21.10
2018-10-09T16:10:53.155Z,21.00
2018-10-09T16:13:27.238Z,21.00
2018-10-09T16:16:01.311Z,20.90
2018-10-09T16:18:35.426Z,20.80
2018-10-09T16:21:09.425Z,20.70
2018-10-09T16:23:43.334Z,20.60
2018-10-09T16:26:17.401Z,20.50
2018-10-09T16:28:52.415Z,20.40
2018-10-09T16:31:26.446Z,20.30
2018-10-09T16:34:00.557Z,20.20
2018-10-09T16:36:34.630Z,20.10
2018-10-09T16:39:09.491Z,19.90
2018-10-09T16:41:43.591Z,19.80
2018-10-09T16:44:18.438Z,19.60
2018-10-09T16:46:52.567Z,19.60
2018-10-09T16:49:26.637Z,19.50
2018-10-09T16:52:00.542Z,19.40
2018-10-09T16:54:34.740Z,19.30
2018-10-09T16:57:08.821Z,19.20
2018-10-09T16:59:42.875Z,19.10
2018-10-09T17:02:16.909Z,19.00
2018-10-09T17:04:50.934Z,18.90
2018-10-09T17:07:25.058Z,18.90
2018-10-09T17:09:59.166Z,18.90
2018-10-09T17:12:33.276Z,18.70
2018-10-09T17:15:07.381Z,18.60
2018-10-09T17:17:41.305Z,18.50
2018-10-09T17:20:15.326Z,18.50
2018-10-09T17:22:49.483Z,18.50
2018-10-09T17:25:24.337Z,18.40
2018-10-09T17:27:58.479Z,18.40
2018-10-09T17:30:32.640Z,18.30
2018-10-09T17:33:06.897Z,18.30
2018-10-09T17:35:40.998Z,18.20
2018-10-09T17:38:15.142Z,18.20
2018-10-09T17:40:49.247Z,18.20
2018-10-09T17:43:23.447Z,18.20
2018-10-09T17:45:57.572Z,18.10
2018-10-09T17:48:32.351Z,18.00
2018-10-09T17:51:06.405Z,18.00
2018-10-09T17:53:40.561Z,18.00
2018-10-09T17:56:15.377Z,17.90
2018-10-09T17:58:50.569Z,17.80
2018-10-09T18:01:27.135Z,17.80
2018-10-09T18:04:02.122Z,17.60
2018-10-09T18:06:37.884Z,17.50
2018-10-09T18:09:11.950Z,17.50
2018-10-09T18:14:29.699Z,17.40
2018-10-09T18:17:03.699Z,17.30
2018-10-09T18:19:38.068Z,17.20
2018-10-09T18:22:12.333Z,17.30
2018-10-09T18:24:46.401Z,17.20
2018-10-09T18:27:20.625Z,17.10
2018-10-09T18:29:55.049Z,16.90
2018-10-09T18:32:36.675Z,17.10
2018-10-09T18:35:10.689Z,17.20
2018-10-09T18:37:44.719Z,17.00
2018-10-09T18:40:18.767Z,17.00
2018-10-09T18:42:53.151Z,16.80
2018-10-09T18:45:28.010Z,16.80
2018-10-09T18:48:02.079Z,16.80
2018-10-09T18:50:36.976Z,16.80
2018-10-09T18:53:11.163Z,16.80
2018-10-09T18:55:45.892Z,16.50
2018-10-09T18:58:20.002Z,16.50
2018-10-09T19:00:55.331Z,16.70
2018-10-09T19:03:29.267Z,16.70
2018-10-09T19:06:03.261Z,16.60
2018-10-09T19:08:37.485Z,16.50
2018-10-09T19:11:11.563Z,16.60
2018-10-09T19:13:46.594Z,16.70
2018-10-09T19:16:21.063Z,16.70
2018-10-09T19:18:55.748Z,16.70
2018-10-09T19:21:30.467Z,16.70
2018-10-09T19:24:06.377Z,16.70
2018-10-09T19:26:44.746Z,16.70
2018-10-09T19:29:18.675Z,16.60
2018-10-09T19:31:53.789Z,16.60
2018-10-09T19:34:28.936Z,16.60
2018-10-09T19:37:04.280Z,16.50
2018-10-09T19:39:39.141Z,16.50
2018-10-09T19:42:16.320Z,16.50
2018-10-09T19:44:51.427Z,16.50
2018-10-09T19:47:25.486Z,16.60
2018-10-09T19:49:59.653Z,16.40
2018-10-09T19:52:37.595Z,16.30
2018-10-09T19:55:11.668Z,16.30
2018-10-09T19:57:45.733Z,16.30
2018-10-09T20:00:20.402Z,16.30
2018-10-09T20:02:54.417Z,16.30
2018-10-09T20:05:28.546Z,16.30
2018-10-09T20:08:03.356Z,16.20
2018-10-09T20:10:37.456Z,16.20
2018-10-09T20:13:11.539Z,16.30
2018-10-09T20:15:45.576Z,16.20
2018-10-09T20:18:20.417Z,16.20
2018-10-09T20:20:55.108Z,16.10
2018-10-09T20:23:29.109Z,16.10
2018-10-09T20:26:03.057Z,16.10
2018-10-09T20:28:37.173Z,16.10
2018-10-09T20:31:11.291Z,16.10
2018-10-09T20:33:45.354Z,16.10
2018-10-09T20:36:19.361Z,16.00
2018-10-09T20:38:53.501Z,15.90
2018-10-09T20:41:27.532Z,16.00
2018-10-09T20:44:01.621Z,15.90
2018-10-09T20:46:35.629Z,15.80
2018-10-09T20:49:09.722Z,15.80
2018-10-09T20:51:43.805Z,15.60
2018-10-09T20:54:17.943Z,15.60
2018-10-09T20:56:52.019Z,15.70
2018-10-09T20:59:26.043Z,15.60
2018-10-09T21:02:00.055Z,15.70
2018-10-09T21:04:34.208Z,15.80
2018-10-09T21:07:08.305Z,15.70
2018-10-09T21:09:42.343Z,15.60
2018-10-09T21:12:16.401Z,15.70
2018-10-09T21:14:50.445Z,15.50
2018-10-09T21:17:24.559Z,15.50
2018-10-09T21:19:58.648Z,15.50
2018-10-09T21:22:33.528Z,15.30
2018-10-09T21:25:07.494Z,15.30
2018-10-09T21:27:42.349Z,15.30
2018-10-09T21:30:16.454Z,15.30
2018-10-09T21:32:50.650Z,15.40
2018-10-09T21:35:24.745Z,15.40
2018-10-09T21:37:58.853Z,15.30
2018-10-09T21:40:33.424Z,15.30
2018-10-09T21:43:07.952Z,15.10
2018-10-09T21:45:42.024Z,14.90
2018-10-09T21:48:16.130Z,14.80
2018-10-09T21:50:50.231Z,14.80
2018-10-09T21:53:24.253Z,14.80
2018-10-09T21:55:59.125Z,14.80
2018-10-09T21:58:33.837Z,14.80
2018-10-09T22:01:08.691Z,14.60
2018-10-09T22:03:42.772Z,14.60
2018-10-09T22:06:16.838Z,14.50
2018-10-09T22:08:50.905Z,14.50
2018-10-09T22:11:24.938Z,14.30
2018-10-09T22:13:58.958Z,14.30
2018-10-09T22:16:33.022Z,14.20
2018-10-09T22:19:07.069Z,14.20
2018-10-09T22:21:41.152Z,14.10
2018-10-09T22:24:15.284Z,14.00
2018-10-09T22:26:49.365Z,14.10
2018-10-09T22:29:24.248Z,14.10
2018-10-09T22:31:58.366Z,14.10
2018-10-09T22:34:32.374Z,14.10
2018-10-09T22:37:06.445Z,14.00
2018-10-09T22:39:40.436Z,13.90
2018-10-09T22:42:14.781Z,13.80
2018-10-09T22:44:48.698Z,13.80
2018-10-09T22:47:22.757Z,13.80
2018-10-09T22:49:56.863Z,13.80
2018-10-09T22:52:30.855Z,13.70
2018-10-09T22:55:05.018Z,13.80
2018-10-09T22:57:39.067Z,13.80
2018-10-09T23:00:13.162Z,13.80
2018-10-09T23:02:47.212Z,13.90
2018-10-09T23:05:21.230Z,13.80
2018-10-09T23:07:55.305Z,13.80
2018-10-09T23:10:29.410Z,13.80
2018-10-09T23:13:03.473Z,13.80
2018-10-09T23:15:37.543Z,13.80
2018-10-09T23:18:11.653Z,13.80
2018-10-09T23:20:45.771Z,13.80
2018-10-09T23:23:19.807Z,13.70
2018-10-09T23:25:53.877Z,13.70
2018-10-09T23:28:28.009Z,13.70
2018-10-09T23:31:02.132Z,13.60
2018-10-09T23:33:36.216Z,13.70
2018-10-09T23:36:11.090Z,13.60
2018-10-09T23:38:45.173Z,13.50
2018-10-09T23:41:19.289Z,13.60
2018-10-09T23:43:53.392Z,13.50
2018-10-09T23:46:28.297Z,13.40
2018-10-09T23:49:02.462Z,13.40
2018-10-09T23:51:36.549Z,13.40
2018-10-09T23:54:10.662Z,13.40
2018-10-09T23:56:44.796Z,13.40
2018-10-09T23:59:18.890Z,13.30
